createdAt,value
2018-06-02T00:01:14.965Z,57.50
2018-06-02T00:03:43.239Z,55.27
2018-06-02T00:08:45.757Z,53.20
2018-06-02T00:11:14.131Z,55.13
2018-06-02T00:13:42.386Z,51.10
2018-06-02T00:16:10.743Z,50.53
2018-06-02T00:18:39.035Z,49.23
2018-06-02T00:21:07.349Z,47.43
2018-06-02T00:23:35.889Z,48.70
2018-06-02T00:26:04.176Z,49.93
2018-06-02T00:28:32.477Z,53.30
2018-06-02T00:31:04.664Z,47.30
2018-06-02T00:33:33.748Z,46.10
2018-06-02T00:36:02.032Z,44.60
2018-06-02T00:38:30.365Z,45.83
2018-06-02T00:40:58.680Z,46.53
2018-06-02T00:43:27.793Z,54.87
2018-06-02T00:45:56.837Z,54.70
2018-06-02T00:48:25.160Z,58.60
2018-06-02T00:50:54.258Z,66.40
2018-06-02T00:53:23.382Z,90.83
2018-06-02T00:55:51.692Z,98.87
2018-06-02T00:58:20.031Z,111.00
2018-06-02T01:00:49.176Z,114.43
2018-06-02T01:03:17.488Z,115.67
2018-06-02T01:05:46.593Z,117.50
2018-06-02T01:08:15.715Z,108.67
2018-06-02T01:10:44.035Z,111.80
2018-06-02T01:13:12.349Z,105.17
2018-06-02T01:15:41.401Z,110.93
2018-06-02T01:18:09.739Z,111.97
2018-06-02T01:20:38.032Z,113.67
2018-06-02T01:23:06.342Z,110.00
2018-06-02T01:25:34.633Z,112.23
2018-06-02T01:28:02.957Z,114.50
2018-06-02T01:30:31.288Z,109.00
2018-06-02T01:32:59.583Z,106.87
2018-06-02T01:35:28.646Z,106.43
2018-06-02T01:37:56.921Z,104.30
2018-06-02T01:42:59.479Z,109.27
2018-06-02T01:45:27.790Z,106.40
2018-06-02T01:47:56.106Z,104.60
2018-06-02T01:50:25.182Z,106.70
2018-06-02T01:52:53.461Z,98.07
2018-06-02T01:55:21.772Z,100.03
2018-06-02T01:57:50.072Z,105.87
2018-06-02T02:00:18.385Z,94.77
2018-06-02T02:02:46.689Z,93.80
2018-06-02T02:05:15.033Z,87.50
2018-06-02T02:07:43.370Z,89.43
2018-06-02T02:10:11.683Z,94.67
2018-06-02T02:12:39.989Z,90.77
2018-06-02T02:15:08.305Z,90.03
2018-06-02T02:17:36.617Z,94.80
2018-06-02T02:20:04.932Z,89.80
2018-06-02T02:22:33.989Z,88.90
2018-06-02T02:25:02.262Z,83.40
2018-06-02T02:27:30.593Z,85.00
2018-06-02T02:29:59.635Z,79.10
2018-06-02T02:32:28.029Z,81.23
2018-06-02T02:34:56.292Z,80.73
2018-06-02T02:37:24.768Z,77.07
2018-06-02T02:39:53.059Z,79.20
2018-06-02T02:42:21.388Z,79.73
2018-06-02T02:44:49.681Z,79.47
2018-06-02T02:47:18.018Z,80.30
2018-06-02T02:49:47.052Z,83.10
2018-06-02T02:54:49.402Z,78.10
2018-06-02T02:57:18.493Z,76.03
2018-06-02T02:59:46.779Z,73.27
2018-06-02T03:02:19.108Z,68.87
2018-06-02T03:04:47.412Z,71.90
2018-06-02T03:07:15.724Z,69.67
2018-06-02T03:09:44.050Z,73.23
2018-06-02T03:12:12.371Z,67.27
2018-06-02T03:14:41.431Z,66.07
2018-06-02T03:17:09.736Z,73.03
2018-06-02T03:19:38.793Z,79.17
2018-06-02T03:22:07.148Z,96.90
2018-06-02T03:24:35.469Z,100.80
2018-06-02T03:27:03.785Z,109.93
2018-06-02T03:29:32.113Z,107.77
2018-06-02T03:32:01.324Z,115.77
2018-06-02T03:34:29.638Z,117.37
2018-06-02T03:36:57.958Z,114.90
2018-06-02T03:39:26.278Z,117.23
2018-06-02T03:41:55.329Z,116.87
2018-06-02T03:44:23.648Z,111.93
2018-06-02T03:46:52.727Z,111.43
2018-06-02T03:49:21.074Z,109.07
2018-06-02T03:51:49.389Z,108.03
2018-06-02T03:54:17.740Z,111.43
2018-06-02T03:56:46.025Z,100.10
2018-06-02T03:59:14.322Z,97.13
2018-06-02T04:01:42.669Z,93.67
2018-06-02T04:04:10.966Z,90.03
2018-06-02T04:06:39.276Z,98.53
2018-06-02T04:09:08.331Z,94.87
2018-06-02T04:11:36.624Z,97.43
2018-06-02T04:14:04.973Z,98.37
2018-06-02T04:16:33.251Z,100.27
2018-06-02T04:19:01.575Z,99.27
2018-06-02T04:21:29.889Z,95.63
2018-06-02T04:23:59.016Z,103.00
2018-06-02T04:26:27.336Z,108.57
2018-06-02T04:28:56.398Z,113.90
2018-06-02T04:31:24.695Z,120.87
2018-06-02T04:33:53.010Z,117.30
2018-06-02T04:38:55.116Z,128.00
2018-06-02T04:41:23.447Z,127.23
2018-06-02T04:43:51.745Z,124.33
2018-06-02T04:46:20.062Z,125.33
2018-06-02T04:48:48.420Z,128.20
2018-06-02T04:51:16.696Z,135.80
2018-06-02T04:53:45.012Z,132.43
2018-06-02T04:56:13.341Z,132.63
2018-06-02T04:58:41.768Z,137.70
2018-06-02T05:01:13.744Z,139.27
2018-06-02T05:03:42.081Z,132.13
2018-06-02T05:06:10.417Z,140.03
2018-06-02T05:08:39.497Z,127.67
2018-06-02T05:11:07.944Z,138.30
2018-06-02T05:13:36.238Z,133.53
2018-06-02T05:16:04.538Z,129.33
2018-06-02T05:18:33.585Z,131.43
2018-06-02T05:21:01.921Z,134.23
2018-06-02T05:23:31.011Z,133.47
2018-06-02T05:26:00.080Z,122.77
2018-06-02T05:28:28.390Z,122.30
2018-06-02T05:30:56.707Z,112.53
2018-06-02T05:33:24.996Z,102.50
2018-06-02T05:35:53.295Z,105.70
2018-06-02T05:38:21.626Z,100.73
2018-06-02T05:40:49.914Z,102.97
2018-06-02T05:43:18.242Z,110.73
2018-06-02T05:45:47.288Z,97.20
2018-06-02T05:48:15.590Z,95.13
2018-06-02T05:50:43.901Z,88.10
2018-06-02T05:53:13.056Z,88.27
2018-06-02T05:55:41.355Z,86.27
2018-06-02T05:58:09.677Z,77.50
2018-06-02T06:00:37.994Z,81.50
2018-06-02T06:03:06.304Z,75.33
2018-06-02T06:05:35.342Z,73.23
2018-06-02T06:08:03.645Z,71.47
2018-06-02T06:10:31.978Z,64.40
2018-06-02T06:13:00.431Z,59.13
2018-06-02T06:15:29.528Z,57.43
2018-06-02T06:17:58.636Z,60.27
2018-06-02T06:20:26.908Z,58.40
2018-06-02T06:22:55.221Z,56.90
2018-06-02T06:25:23.541Z,57.77
2018-06-02T06:27:51.834Z,50.40
2018-06-02T06:30:20.924Z,52.47
2018-06-02T06:32:49.983Z,50.63
2018-06-02T06:35:18.341Z,51.03
2018-06-02T06:37:50.102Z,54.83
2018-06-02T06:40:18.407Z,48.33
2018-06-02T06:42:46.701Z,50.87
2018-06-02T06:45:15.970Z,45.17
2018-06-02T06:47:44.268Z,48.27
2018-06-02T06:50:12.569Z,42.37
2018-06-02T06:52:40.864Z,44.73
2018-06-02T06:55:09.931Z,40.70
2018-06-02T06:57:38.274Z,38.43
2018-06-02T07:00:07.292Z,39.20
2018-06-02T07:02:35.605Z,37.13
2018-06-02T07:05:04.702Z,34.03
2018-06-02T07:07:33.731Z,36.07
2018-06-02T07:10:02.123Z,35.73
2018-06-02T07:12:32.948Z,38.13
2018-06-02T07:15:03.556Z,36.33
2018-06-02T07:17:32.855Z,33.73
2018-06-02T07:20:01.297Z,36.30
2018-06-02T07:22:29.626Z,35.33
2018-06-02T07:24:57.920Z,33.67
2018-06-02T07:27:26.252Z,35.17
2018-06-02T07:29:55.382Z,32.83
2018-06-02T07:32:23.696Z,31.87
2018-06-02T07:34:52.026Z,33.90
2018-06-02T07:37:23.480Z,32.67
2018-06-02T07:39:54.866Z,38.60
2018-06-02T07:42:23.244Z,34.57
2018-06-02T07:44:51.532Z,35.30
2018-06-02T07:47:19.856Z,34.23
2018-06-02T07:49:48.939Z,35.83
2018-06-02T07:52:17.232Z,36.50
2018-06-02T07:54:45.543Z,36.27
2018-06-02T07:57:13.880Z,39.07
2018-06-02T07:59:42.952Z,37.70
2018-06-02T08:02:11.247Z,39.33
2018-06-02T08:04:40.337Z,42.77
2018-06-02T08:07:09.406Z,40.73
2018-06-02T08:09:37.684Z,40.73
2018-06-02T08:12:05.998Z,41.83
2018-06-02T08:14:35.044Z,42.63
2018-06-02T08:17:03.354Z,46.03
2018-06-02T08:19:32.376Z,48.17
2018-06-02T08:22:00.713Z,44.27
2018-06-02T08:24:29.003Z,45.47
2018-06-02T08:26:58.109Z,46.70
2018-06-02T08:29:27.165Z,42.53
2018-06-02T08:31:55.469Z,42.47
2018-06-02T08:34:23.770Z,44.30
2018-06-02T08:36:55.871Z,44.03
2018-06-02T08:39:24.163Z,45.37
2018-06-02T08:41:52.523Z,45.80
2018-06-02T08:44:20.804Z,43.30
2018-06-02T08:46:49.144Z,42.57
2018-06-02T08:49:18.180Z,47.70
2018-06-02T08:51:46.476Z,47.33
2018-06-02T08:54:14.788Z,45.53
2018-06-02T08:56:43.941Z,39.93
2018-06-02T08:59:12.247Z,44.57
2018-06-02T09:01:40.519Z,47.77
2018-06-02T09:04:09.610Z,51.60
2018-06-02T09:06:38.017Z,48.53
2018-06-02T09:09:06.310Z,48.33
2018-06-02T09:11:34.628Z,52.93
2018-06-02T09:14:02.948Z,41.43
2018-06-02T09:16:32.042Z,41.77
2018-06-02T09:19:01.118Z,38.73
2018-06-02T09:21:29.405Z,38.33
2018-06-02T09:23:57.747Z,37.00
2018-06-02T09:26:26.058Z,35.33
2018-06-02T09:28:54.425Z,33.23
2018-06-02T09:31:22.701Z,32.80
2018-06-02T09:33:50.996Z,31.70
2018-06-02T09:36:20.056Z,36.07
2018-06-02T09:38:48.358Z,35.77
2018-06-02T09:41:16.659Z,28.97
2018-06-02T09:43:45.732Z,32.27
2018-06-02T09:46:14.043Z,31.73
2018-06-02T09:48:42.357Z,33.03
2018-06-02T09:51:10.646Z,36.50
2018-06-02T09:53:38.950Z,35.23
2018-06-02T09:56:07.244Z,36.33
2018-06-02T09:58:36.302Z,31.77
2018-06-02T10:01:04.583Z,44.07
2018-06-02T10:03:32.957Z,37.87
2018-06-02T10:06:01.233Z,37.77
2018-06-02T10:08:29.549Z,37.43
2018-06-02T10:10:57.832Z,35.20
2018-06-02T10:13:26.187Z,36.50
2018-06-02T10:15:54.644Z,39.07
2018-06-02T10:18:22.994Z,35.30
2018-06-02T10:20:51.342Z,35.20
2018-06-02T10:23:19.649Z,32.33
2018-06-02T10:25:48.050Z,35.50
2018-06-02T10:28:16.408Z,29.47
2018-06-02T10:30:44.701Z,29.50
2018-06-02T10:33:13.041Z,24.73
2018-06-02T10:35:46.456Z,27.17
2018-06-02T10:38:14.839Z,23.17
2018-06-02T10:40:43.161Z,24.60
2018-06-02T10:43:11.460Z,21.87
2018-06-02T10:45:40.551Z,26.53
2018-06-02T10:48:08.898Z,22.77
2018-06-02T10:50:37.186Z,25.40
2018-06-02T10:53:05.489Z,27.10
2018-06-02T10:55:34.767Z,27.30
2018-06-02T10:58:03.081Z,27.57
2018-06-02T11:00:32.152Z,29.47
2018-06-02T11:03:00.469Z,25.93
2018-06-02T11:05:29.740Z,27.50
2018-06-02T11:07:58.846Z,26.03
2018-06-02T11:10:27.921Z,27.17
2018-06-02T11:12:56.227Z,28.67
2018-06-02T11:15:25.303Z,28.70
2018-06-02T11:17:54.371Z,29.43
2018-06-02T11:20:22.682Z,26.93
2018-06-02T11:22:51.895Z,29.60
2018-06-02T11:25:21.007Z,31.60
2018-06-02T11:27:49.320Z,31.20
2018-06-02T11:30:17.752Z,31.47
2018-06-02T11:32:46.128Z,32.57
2018-06-02T11:35:15.192Z,30.27
2018-06-02T11:37:43.530Z,33.30
2018-06-02T11:40:11.896Z,35.07
2018-06-02T11:42:40.215Z,33.57
2018-06-02T11:45:08.502Z,34.73
2018-06-02T11:47:36.843Z,36.07
2018-06-02T11:50:05.196Z,36.43
2018-06-02T11:52:34.242Z,37.20
2018-06-02T11:55:02.525Z,38.30
2018-06-02T11:57:30.840Z,34.47
2018-06-02T11:59:59.911Z,36.90
2018-06-02T12:02:28.299Z,38.77
2018-06-02T12:04:57.365Z,36.03
2018-06-02T12:07:25.744Z,36.70
2018-06-02T12:09:54.039Z,38.13
2018-06-02T12:12:22.354Z,36.60
2018-06-02T12:14:50.673Z,37.37
2018-06-02T12:17:18.988Z,36.23
2018-06-02T12:19:47.273Z,39.70
2018-06-02T12:22:16.331Z,36.70
2018-06-02T12:24:44.652Z,41.93
2018-06-02T12:27:12.986Z,37.53
2018-06-02T12:29:41.270Z,36.33
2018-06-02T12:32:09.693Z,34.97
2018-06-02T12:34:37.992Z,34.03
2018-06-02T12:37:06.310Z,39.00
2018-06-02T12:39:34.622Z,38.43
2018-06-02T12:42:02.949Z,43.97
2018-06-02T12:44:31.266Z,37.80
2018-06-02T12:46:59.573Z,36.17
2018-06-02T12:49:27.935Z,30.20
2018-06-02T12:51:56.204Z,30.97
2018-06-02T12:54:24.580Z,34.40
2018-06-02T12:56:53.673Z,34.30
2018-06-02T12:59:22.810Z,29.87
2018-06-02T13:01:51.206Z,30.50
2018-06-02T13:04:19.538Z,29.83
2018-06-02T13:06:48.577Z,30.43
2018-06-02T13:09:16.945Z,32.60
2018-06-02T13:11:45.237Z,32.37
2018-06-02T13:14:13.674Z,35.07
2018-06-02T13:16:42.709Z,38.73
2018-06-02T13:19:11.791Z,35.97
2018-06-02T13:21:40.082Z,40.07
2018-06-02T13:24:08.380Z,36.07
2018-06-02T13:26:36.691Z,40.33
2018-06-02T13:29:05.826Z,37.37
2018-06-02T13:31:34.137Z,36.30
2018-06-02T13:34:02.458Z,38.13
2018-06-02T13:36:30.762Z,36.67
2018-06-02T13:38:59.832Z,37.07
2018-06-02T13:41:28.128Z,36.50
2018-06-02T13:43:56.436Z,33.23
2018-06-02T13:46:24.755Z,33.17
2018-06-02T13:48:53.827Z,31.00
2018-06-02T13:51:22.106Z,32.57
2018-06-02T13:53:51.163Z,32.23
2018-06-02T13:56:19.481Z,34.00
2018-06-02T13:58:47.777Z,34.67
2018-06-02T14:01:16.914Z,36.30
2018-06-02T14:03:45.158Z,38.20
2018-06-02T14:06:13.510Z,34.60
2018-06-02T14:08:41.812Z,37.37
2018-06-02T14:11:11.100Z,40.80
2018-06-02T14:13:40.178Z,44.13
2018-06-02T14:16:08.492Z,42.70
2018-06-02T14:18:36.892Z,39.90
2018-06-02T14:21:05.146Z,42.17
2018-06-02T14:23:33.447Z,42.33
2018-06-02T14:26:01.801Z,40.90
2018-06-02T14:28:30.099Z,45.90
2018-06-02T14:30:58.433Z,43.07
2018-06-02T14:33:26.747Z,45.60
2018-06-02T14:35:55.145Z,42.00
2018-06-02T14:38:23.524Z,46.93
2018-06-02T14:40:51.795Z,47.53
2018-06-02T14:43:20.200Z,42.60
2018-06-02T14:45:48.496Z,43.23
2018-06-02T14:48:16.802Z,43.90
2018-06-02T14:50:45.142Z,43.27
2018-06-02T14:53:13.498Z,47.40
2018-06-02T14:55:41.790Z,41.60
2018-06-02T14:58:10.105Z,45.73
2018-06-02T15:00:39.226Z,42.27
2018-06-02T15:03:07.546Z,40.83
2018-06-02T15:05:35.836Z,39.33
2018-06-02T15:08:04.161Z,39.30
2018-06-02T15:10:32.464Z,40.77
2018-06-02T15:13:00.785Z,39.27
2018-06-02T15:15:29.843Z,35.97
2018-06-02T15:17:58.176Z,38.87
2018-06-02T15:20:26.481Z,38.50
2018-06-02T15:22:55.069Z,37.17
2018-06-02T15:25:23.391Z,39.20
2018-06-02T15:27:52.535Z,37.03
2018-06-02T15:30:20.849Z,36.90
2018-06-02T15:32:49.208Z,36.87
2018-06-02T15:35:17.484Z,38.70
2018-06-02T15:37:45.781Z,39.17
2018-06-02T15:40:14.139Z,36.57
2018-06-02T15:42:42.433Z,37.57
2018-06-02T15:45:10.760Z,37.00
2018-06-02T15:47:39.061Z,37.27
2018-06-02T15:50:07.373Z,36.97
2018-06-02T15:52:35.712Z,33.47
2018-06-02T15:55:04.021Z,40.93
2018-06-02T15:57:32.408Z,30.27
2018-06-02T16:00:00.727Z,33.43
2018-06-02T16:02:29.024Z,31.23
2018-06-02T16:04:57.400Z,29.37
2018-06-02T16:07:25.693Z,34.13
2018-06-02T16:09:53.985Z,32.57
2018-06-02T16:12:22.324Z,31.23
2018-06-02T16:17:25.288Z,29.27
2018-06-02T16:19:57.262Z,28.80
2018-06-02T16:22:26.375Z,26.27
2018-06-02T16:24:54.673Z,27.27
2018-06-02T16:27:22.976Z,26.27
2018-06-02T16:29:51.291Z,28.97
2018-06-02T16:32:20.352Z,30.87
2018-06-02T16:34:48.678Z,31.40
2018-06-02T16:37:17.060Z,29.77
2018-06-02T16:39:45.383Z,29.10
2018-06-02T16:42:13.702Z,26.83
2018-06-02T16:44:42.827Z,25.60
2018-06-02T16:47:11.133Z,25.17
2018-06-02T16:49:39.549Z,27.43
2018-06-02T16:52:08.617Z,24.97
2018-06-02T16:54:36.917Z,23.43
2018-06-02T16:57:05.217Z,20.77
2018-06-02T16:59:33.526Z,19.23
2018-06-02T17:02:01.838Z,20.67
2018-06-02T17:04:30.169Z,23.07
2018-06-02T17:06:58.487Z,20.33
2018-06-02T17:09:26.799Z,21.23
2018-06-02T17:11:55.865Z,19.87
2018-06-02T17:14:24.176Z,21.60
2018-06-02T17:16:53.251Z,22.57
2018-06-02T17:19:21.598Z,29.80
2018-06-02T17:21:49.924Z,23.60
2018-06-02T17:24:19.020Z,23.23
2018-06-02T17:26:48.175Z,25.40
2018-06-02T17:29:16.543Z,20.43
2018-06-02T17:31:44.893Z,26.13
2018-06-02T17:34:13.211Z,24.23
2018-06-02T17:36:41.533Z,18.43
2018-06-02T17:39:09.954Z,21.77
2018-06-02T17:41:38.253Z,17.93
2018-06-02T17:44:06.578Z,19.07
2018-06-02T17:46:34.903Z,19.53
2018-06-02T17:49:03.198Z,18.10
2018-06-02T17:51:31.565Z,18.93
2018-06-02T17:53:59.858Z,18.87
2018-06-02T17:56:28.160Z,18.03
2018-06-02T17:58:56.474Z,20.03
2018-06-02T18:01:24.770Z,20.30
2018-06-02T18:03:53.097Z,19.13
2018-06-02T18:06:21.557Z,20.70
2018-06-02T18:08:49.852Z,20.60
2018-06-02T18:11:19.356Z,19.17
2018-06-02T18:13:48.459Z,19.67
2018-06-02T18:16:18.917Z,21.20
2018-06-02T18:18:51.287Z,21.73
2018-06-02T18:21:19.550Z,25.97
2018-06-02T18:26:22.742Z,23.03
2018-06-02T18:28:51.807Z,20.17
2018-06-02T18:31:20.137Z,20.73
2018-06-02T18:33:48.448Z,22.13
2018-06-02T18:36:16.757Z,19.47
2018-06-02T18:38:45.812Z,20.97
2018-06-02T18:41:14.110Z,22.67
2018-06-02T18:43:42.428Z,21.60
2018-06-02T18:46:11.524Z,24.23
2018-06-02T18:48:40.603Z,27.93
2018-06-02T18:51:09.671Z,25.47
2018-06-02T18:53:38.031Z,24.87
2018-06-02T18:56:07.057Z,28.03
2018-06-02T18:58:35.371Z,28.50
2018-06-02T19:01:03.710Z,29.27
2018-06-02T19:03:32.008Z,31.37
2018-06-02T19:06:01.091Z,29.00
2018-06-02T19:08:29.449Z,30.67
2018-06-02T19:10:57.771Z,32.33
2018-06-02T19:13:26.834Z,30.77
2018-06-02T19:15:55.141Z,31.00
2018-06-02T19:18:24.264Z,29.33
2018-06-02T19:20:52.674Z,28.90
2018-06-02T19:23:20.970Z,34.80
2018-06-02T19:25:52.857Z,34.23
2018-06-02T19:28:21.947Z,32.50
2018-06-02T19:30:51.063Z,37.10
2018-06-02T19:33:19.352Z,34.77
2018-06-02T19:35:47.747Z,31.97
2018-06-02T19:38:16.076Z,34.83
2018-06-02T19:40:45.296Z,36.77
2018-06-02T19:43:13.580Z,33.80
2018-06-02T19:45:41.913Z,39.93
2018-06-02T19:48:10.364Z,41.30
2018-06-02T19:50:38.649Z,35.73
2018-06-02T19:53:06.955Z,35.23
2018-06-02T19:55:35.310Z,38.57
2018-06-02T20:00:37.110Z,35.73
2018-06-02T20:03:05.456Z,36.33
2018-06-02T20:05:33.852Z,36.40
2018-06-02T20:08:02.190Z,41.50
2018-06-02T20:10:30.551Z,42.63
2018-06-02T20:12:58.927Z,38.90
2018-06-02T20:15:28.041Z,40.43
2018-06-02T20:17:56.392Z,39.17
2018-06-02T20:20:25.654Z,42.70
2018-06-02T20:22:54.006Z,40.97
2018-06-02T20:25:22.329Z,45.87
2018-06-02T20:27:50.832Z,42.47
2018-06-02T20:30:19.981Z,37.63
2018-06-02T20:32:49.300Z,36.13
2018-06-02T20:35:17.691Z,39.87
2018-06-02T20:37:46.128Z,34.10
2018-06-02T20:40:14.425Z,33.90
2018-06-02T20:42:42.741Z,35.77
2018-06-02T20:45:11.061Z,34.50
2018-06-02T20:47:40.210Z,35.60
2018-06-02T20:50:08.520Z,36.90
2018-06-02T20:52:36.841Z,40.63
2018-06-02T20:55:05.152Z,37.20
2018-06-02T20:57:34.269Z,36.10
2018-06-02T21:00:02.582Z,37.17
2018-06-02T21:02:30.929Z,37.50
2018-06-02T21:04:59.228Z,39.67
2018-06-02T21:07:27.584Z,36.30
2018-06-02T21:12:30.586Z,39.83
2018-06-02T21:14:59.017Z,39.43
2018-06-02T21:17:27.307Z,38.47
2018-06-02T21:19:55.677Z,39.13
2018-06-02T21:22:24.060Z,41.33
2018-06-02T21:24:53.377Z,35.97
2018-06-02T21:27:21.728Z,44.57
2018-06-02T21:29:50.021Z,39.57
2018-06-02T21:32:18.327Z,43.30
2018-06-02T21:34:47.428Z,40.87
2018-06-02T21:37:15.723Z,37.37
2018-06-02T21:39:44.015Z,37.93
2018-06-02T21:42:12.360Z,40.67
2018-06-02T21:44:41.478Z,40.90
2018-06-02T21:47:10.497Z,40.37
2018-06-02T21:49:39.637Z,36.53
2018-06-02T21:52:08.722Z,45.30
2018-06-02T21:54:37.041Z,43.87
2018-06-02T21:57:05.321Z,41.33
2018-06-02T21:59:33.607Z,40.60
2018-06-02T22:02:01.925Z,37.27
2018-06-02T22:04:30.266Z,39.40
2018-06-02T22:06:58.602Z,37.93
2018-06-02T22:09:31.535Z,38.00
2018-06-02T22:11:59.838Z,36.07
2018-06-02T22:14:28.179Z,41.37
2018-06-02T22:16:56.566Z,37.03
2018-06-02T22:19:24.873Z,42.00
2018-06-02T22:21:53.212Z,42.23
2018-06-02T22:24:21.584Z,41.97
2018-06-02T22:26:49.889Z,43.87
2018-06-02T22:29:18.180Z,42.20
2018-06-02T22:31:46.502Z,42.87
2018-06-02T22:34:15.598Z,44.40
2018-06-02T22:36:47.725Z,49.37
2018-06-02T22:39:16.005Z,47.07
2018-06-02T22:41:45.334Z,44.07
2018-06-02T22:44:14.380Z,46.73
2018-06-02T22:46:45.848Z,44.60
2018-06-02T22:49:14.176Z,43.67
2018-06-02T22:51:57.414Z,46.10
2018-06-02T22:54:26.504Z,47.73
2018-06-02T22:56:54.804Z,50.43
2018-06-02T22:59:23.132Z,49.27
2018-06-02T23:01:52.260Z,50.97
2018-06-02T23:04:20.568Z,49.90
2018-06-02T23:06:48.888Z,49.83
2018-06-02T23:09:17.930Z,53.17
2018-06-02T23:11:46.324Z,49.67
2018-06-02T23:14:14.575Z,53.17
2018-06-02T23:16:42.878Z,52.47
2018-06-02T23:19:11.201Z,53.73
2018-06-02T23:21:40.251Z,55.87
2018-06-02T23:24:08.582Z,50.23
2018-06-02T23:26:37.290Z,50.53
2018-06-02T23:29:05.628Z,48.53
2018-06-02T23:31:34.949Z,51.77
2018-06-02T23:34:04.104Z,51.03
2018-06-02T23:36:32.399Z,58.77
2018-06-02T23:39:01.487Z,51.60
2018-06-02T23:41:29.810Z,50.57
2018-06-02T23:43:58.095Z,55.17
2018-06-02T23:46:26.367Z,54.43
2018-06-02T23:48:55.566Z,61.43
2018-06-02T23:51:23.897Z,50.53
2018-06-02T23:53:52.994Z,62.03
2018-06-02T23:56:23.391Z,55.17
2018-06-02T23:58:51.764Z,51.13
